Time;durP1;ratioP1;P1;durP2;ratioP2;P2;SDS_P1;SDS_P2;PMS_P1;PMS_P2;Temp;Humidity;BMP_temperature;BMP_pressure;BME280_temperature;BME280_humidity;BME280_pressure;Samples;Min_cycle;Max_cycle;Signal;HPM_P1;HPM_P2
2021/03/14 07:52:47;;;;;;;;;;;5.80;91.20;;;;;;6211633;22;19935;-87
2021/03/14 13:06:27;;;;;;;;;;;;;;;;;;;;;
2021/03/14 18:53:47;;;;;;;;;;;;;;;;;;;;;
2021/03/14 18:59:27;;;;;;;;;;;7.10;82.30;;;;;;6173972;23;19911;-87
2021/03/14 19:02:37;;;;;;;;;;;7.20;82.40;;;;;;6186859;23;19900;-87
2021/03/14 19:05:13;;;;;;;;;;;;;;;;;;;;;
2021/03/14 19:07:58;;;;;;;;;;;;;;;;;;;;;
2021/03/14 19:10:36;;;;;;;;;;;;;;;;;;;;;
2021/03/14 19:16:42;;;;;;;;;;;7.20;82.70;;;;;;6154453;23;20279;-88
2021/03/14 19:19:31;;;;;;;;;;;7.20;82.90;;;;;;6154030;23;20338;-88
2021/03/14 19:22:05;;;;;;;;;;;7.20;83.00;;;;;;6159592;23;19991;-88
2021/03/14 19:24:39;;;;;;;;;;;7.20;83.20;;;;;;6184930;23;19990;-87
2021/03/14 19:27:07;;;;;;;;;;;7.20;83.30;;;;;;6185431;23;19907;-88
2021/03/14 19:29:59;;;;;;;;;;;7.20;83.30;;;;;;6159598;23;19900;-88
2021/03/14 19:32:50;;;;;;;;;;;;;;;;;;;;;
2021/03/14 19:35:20;;;;;;;;;;;7.10;83.40;;;;;;6185526;23;19940;-88
2021/03/14 19:37:59;;;;;;;;;;;;;;;;;;;;;
2021/03/14 19:40:33;;;;;;;;;;;7.20;83.70;;;;;;6184922;23;19983;-88
2021/03/14 19:43:07;;;;;;;;;;;7.10;83.70;;;;;;6184627;23;19904;-88
2021/03/14 19:45:42;;;;;;;;;;;7.10;83.90;;;;;;6184715;23;19983;-88
2021/03/14 19:48:13;;;;;;;;;;;7.10;83.90;;;;;;6177363;23;19924;-88
2021/03/14 19:53:49;;;;;;;;;;;7.10;84.00;;;;;;6136808;23;19951;-88
2021/03/14 19:56:56;;;;;;;;;;;7.10;84.20;;;;;;6154768;23;20200;-86
2021/03/14 19:59:41;;;;;;;;;;;7.10;84.30;;;;;;6154700;23;19975;-86
2021/03/14 20:02:43;;;;;;;;;;;7.10;84.50;;;;;;6107939;23;20140;-87
2021/03/14 20:05:23;;;;;;;;;;;7.10;84.60;;;;;;6155445;23;19974;-87
2021/03/14 20:08:07;;;;;;;;;;;7.00;84.60;;;;;;6154622;23;19923;-87
2021/03/14 20:10:44;;;;;;;;;;;7.10;84.80;;;;;;6154172;23;20376;-87
2021/03/14 20:13:39;;;;;;;;;;;;;;;;;;;;;
2021/03/14 20:16:25;;;;;;;;;;;7.00;84.70;;;;;;6155567;23;20366;-86
2021/03/14 20:27:42;;;;;;;;;;;;;;;;;;;;;
2021/03/14 20:36:30;;;;;;;;;;;7.00;85.00;;;;;;6156359;23;19905;-86
2021/03/14 20:39:47;;;;;;;;;;;;;;;;;;;;;
2021/03/14 20:42:40;;;;;;;;;;;;;;;;;;;;;
2021/03/14 20:48:26;;;;;;;;;;;7.00;86.30;;;;;;6145020;23;19917;-87
2021/03/14 20:53:50;;;;;;;;;;;6.90;86.40;;;;;;6186077;23;20374;-85
2021/03/14 20:56:18;;;;;;;;;;;6.90;86.60;;;;;;6183877;23;20476;-87
2021/03/14 21:02:17;;;;;;;;;;;6.80;86.80;;;;;;6159377;23;19900;-86
2021/03/14 21:05:09;;;;;;;;;;;;;;;;;;;;;
2021/03/14 21:07:44;;;;;;;;;;;6.80;87.00;;;;;;6185227;23;19972;-87
2021/03/14 21:13:45;;;;;;;;;;;;;;;;;;;;;
2021/03/14 21:22:35;;;;;;;;;;;6.80;87.20;;;;;;6023330;23;19909;-88
2021/03/14 21:33:57;;;;;;;;;;;;;;;;;;;;;
2021/03/14 21:36:41;;;;;;;;;;;;;;;;;;;;;
2021/03/14 21:39:44;;;;;;;;;;;6.80;87.60;;;;;;6191048;23;19978;-88
2021/03/14 21:42:33;;;;;;;;;;;6.70;87.80;;;;;;6187336;23;20273;-88
2021/03/14 21:45:17;;;;;;;;;;;6.70;88.40;;;;;;6165485;23;20195;-88
2021/03/14 21:48:07;;;;;;;;;;;;;;;;;;;;;
2021/03/14 21:50:53;;;;;;;;;;;6.70;87.80;;;;;;6180768;23;19990;-89
2021/03/14 21:56:37;;;;;;;;;;;;;;;;;;;;;
2021/03/14 21:59:16;;;;;;;;;;;6.70;88.00;;;;;;6168874;23;19987;-88
2021/03/14 22:01:47;;;;;;;;;;;6.70;88.00;;;;;;6158817;23;20228;-87
2021/03/14 22:04:15;;;;;;;;;;;6.70;88.10;;;;;;6184418;23;19984;-88
2021/03/14 22:06:59;;;;;;;;;;;6.70;88.10;;;;;;6182757;23;19901;-88
2021/03/14 22:09:40;;;;;;;;;;;;;;;;;;;;;
2021/03/14 22:12:17;;;;;;;;;;;6.70;88.20;;;;;;6183422;23;19987;-88
2021/03/14 22:15:14;;;;;;;;;;;;;;;;;;;;;
2021/03/14 22:20:48;;;;;;;;;;;6.70;88.40;;;;;;6137692;23;19963;-88
2021/03/14 22:26:33;;;;;;;;;;;;;;;;;;;;;
2021/03/14 22:29:14;;;;;;;;;;;6.70;88.50;;;;;;6185375;23;19987;-89
2021/03/14 22:31:42;;;;;;;;;;;6.70;88.60;;;;;;6186037;23;19933;-88
2021/03/14 22:34:28;;;;;;;;;;;6.70;88.70;;;;;;6183213;23;19904;-88
2021/03/14 22:37:04;;;;;;;;;;;6.70;88.70;;;;;;6160174;23;19904;-88
2021/03/14 22:39:38;;;;;;;;;;;6.70;88.60;;;;;;6182751;23;19907;-88
2021/03/14 22:42:30;;;;;;;;;;;;;;;;;;;;;
2021/03/14 22:45:06;;;;;;;;;;;;;;;;;;;;;
2021/03/14 22:47:52;;;;;;;;;;;6.70;88.90;;;;;;6187363;23;19975;-88
2021/03/14 22:50:24;;;;;;;;;;;6.70;88.90;;;;;;6133242;23;19916;-87
2021/03/14 22:53:10;;;;;;;;;;;6.80;89.00;;;;;;6185581;23;20345;-88
2021/03/14 22:55:45;;;;;;;;;;;6.80;89.10;;;;;;6183531;23;19900;-87
2021/03/14 23:10:21;;;;;;;;;;;6.70;89.80;;;;;;6162147;23;19962;-88
2021/03/14 23:13:18;;;;;;;;;;;6.70;89.90;;;;;;6143709;23;19927;-86
2021/03/14 23:15:55;;;;;;;;;;;6.70;90.00;;;;;;6183990;23;20298;-88
2021/03/14 23:21:34;;;;;;;;;;;;;;;;;;;;;
2021/03/14 23:24:28;;;;;;;;;;;;;;;;;;;;;
2021/03/14 23:30:32;;;;;;;;;;;;;;;;;;;;;
2021/03/14 23:36:17;;;;;;;;;;;6.60;90.50;;;;;;6165635;23;20279;-87
2021/03/14 23:38:59;;;;;;;;;;;;;;;;;;;;;
2021/03/14 23:53:51;;;;;;;;;;;;;;;;;;;;;
2021/03/14 23:56:52;;;;;;;;;;;6.60;90.70;;;;;;6035780;23;20407;-89
